sensor_id;sensor_type;location;lat;lon;timestamp;P1;durP1;ratioP1;P2;durP2;ratioP2
75316;SDS011;63913;51.492;10.368;2023-05-02T00:00:27;2.70;;;2.33;;
75316;SDS011;63913;51.492;10.368;2023-05-02T00:02:53;3.47;;;2.50;;
75316;SDS011;63913;51.492;10.368;2023-05-02T00:05:19;3.78;;;2.60;;
75316;SDS011;63913;51.492;10.368;2023-05-02T00:07:44;3.75;;;2.30;;
75316;SDS011;63913;51.492;10.368;2023-05-02T00:10:10;3.67;;;2.58;;
75316;SDS011;63913;51.492;10.368;2023-05-02T00:12:36;4.20;;;2.70;;
75316;SDS011;63913;51.492;10.368;2023-05-02T00:15:02;3.17;;;2.53;;
75316;SDS011;63913;51.492;10.368;2023-05-02T00:17:27;3.08;;;2.42;;
75316;SDS011;63913;51.492;10.368;2023-05-02T00:19:53;3.50;;;2.63;;
75316;SDS011;63913;51.492;10.368;2023-05-02T00:22:18;2.47;;;2.27;;
75316;SDS011;63913;51.492;10.368;2023-05-02T00:24:43;3.42;;;2.42;;
75316;SDS011;63913;51.492;10.368;2023-05-02T00:27:09;2.43;;;2.03;;
75316;SDS011;63913;51.492;10.368;2023-05-02T00:29:34;3.85;;;2.97;;
75316;SDS011;63913;51.492;10.368;2023-05-02T00:32:00;2.95;;;2.40;;
75316;SDS011;63913;51.492;10.368;2023-05-02T00:34:29;3.58;;;2.25;;
75316;SDS011;63913;51.492;10.368;2023-05-02T00:36:55;4.63;;;2.53;;
75316;SDS011;63913;51.492;10.368;2023-05-02T00:39:20;3.75;;;2.63;;
75316;SDS011;63913;51.492;10.368;2023-05-02T00:41:46;3.60;;;2.95;;
75316;SDS011;63913;51.492;10.368;2023-05-02T00:44:11;3.35;;;2.70;;
75316;SDS011;63913;51.492;10.368;2023-05-02T00:46:37;3.78;;;2.70;;
75316;SDS011;63913;51.492;10.368;2023-05-02T00:49:02;3.80;;;2.65;;
75316;SDS011;63913;51.492;10.368;2023-05-02T00:51:28;3.90;;;2.78;;
75316;SDS011;63913;51.492;10.368;2023-05-02T00:53:54;5.13;;;2.60;;
75316;SDS011;63913;51.492;10.368;2023-05-02T00:56:21;4.38;;;3.05;;
75316;SDS011;63913;51.492;10.368;2023-05-02T00:58:47;4.10;;;3.05;;
75316;SDS011;63913;51.492;10.368;2023-05-02T01:01:15;3.58;;;2.58;;
75316;SDS011;63913;51.492;10.368;2023-05-02T01:09:14;3.75;;;2.88;;
75316;SDS011;63913;51.492;10.368;2023-05-02T01:11:57;6.18;;;3.20;;
75316;SDS011;63913;51.492;10.368;2023-05-02T01:14:29;4.47;;;2.95;;
75316;SDS011;63913;51.492;10.368;2023-05-02T01:16:57;6.30;;;3.30;;
75316;SDS011;63913;51.492;10.368;2023-05-02T01:19:31;4.65;;;2.65;;
75316;SDS011;63913;51.492;10.368;2023-05-02T01:22:01;6.68;;;3.35;;
75316;SDS011;63913;51.492;10.368;2023-05-02T01:24:30;7.53;;;3.78;;
75316;SDS011;63913;51.492;10.368;2023-05-02T01:27:04;6.07;;;3.42;;
75316;SDS011;63913;51.492;10.368;2023-05-02T01:32:04;4.70;;;2.90;;
75316;SDS011;63913;51.492;10.368;2023-05-02T01:34:32;4.70;;;3.35;;
75316;SDS011;63913;51.492;10.368;2023-05-02T01:37:01;4.78;;;2.95;;
75316;SDS011;63913;51.492;10.368;2023-05-02T01:39:29;5.45;;;3.00;;
75316;SDS011;63913;51.492;10.368;2023-05-02T01:41:56;7.28;;;3.15;;
75316;SDS011;63913;51.492;10.368;2023-05-02T01:44:23;4.80;;;2.83;;
75316;SDS011;63913;51.492;10.368;2023-05-02T01:46:50;4.70;;;3.28;;
75316;SDS011;63913;51.492;10.368;2023-05-02T01:49:19;5.70;;;3.42;;
75316;SDS011;63913;51.492;10.368;2023-05-02T01:51:47;4.78;;;2.97;;
75316;SDS011;63913;51.492;10.368;2023-05-02T01:54:15;6.95;;;3.47;;
75316;SDS011;63913;51.492;10.368;2023-05-02T01:56:42;4.63;;;3.38;;
75316;SDS011;63913;51.492;10.368;2023-05-02T01:59:10;6.25;;;3.40;;
75316;SDS011;63913;51.492;10.368;2023-05-02T02:01:37;4.47;;;3.53;;
75316;SDS011;63913;51.492;10.368;2023-05-02T02:04:04;4.93;;;3.03;;
75316;SDS011;63913;51.492;10.368;2023-05-02T02:06:32;4.95;;;3.03;;
75316;SDS011;63913;51.492;10.368;2023-05-02T02:08:58;5.82;;;3.97;;
75316;SDS011;63913;51.492;10.368;2023-05-02T02:11:25;4.72;;;3.28;;
75316;SDS011;63913;51.492;10.368;2023-05-02T02:13:59;5.35;;;3.45;;
75316;SDS011;63913;51.492;10.368;2023-05-02T02:16:29;7.15;;;3.83;;
75316;SDS011;63913;51.492;10.368;2023-05-02T02:18:57;6.10;;;3.63;;
75316;SDS011;63913;51.492;10.368;2023-05-02T02:21:28;6.55;;;3.80;;
75316;SDS011;63913;51.492;10.368;2023-05-02T02:23:55;6.18;;;3.63;;
75316;SDS011;63913;51.492;10.368;2023-05-02T02:26:24;5.22;;;3.60;;
75316;SDS011;63913;51.492;10.368;2023-05-02T02:28:49;5.00;;;3.28;;
75316;SDS011;63913;51.492;10.368;2023-05-02T02:31:15;5.32;;;3.60;;
75316;SDS011;63913;51.492;10.368;2023-05-02T02:33:40;5.50;;;3.90;;
75316;SDS011;63913;51.492;10.368;2023-05-02T02:36:10;6.15;;;3.63;;
75316;SDS011;63913;51.492;10.368;2023-05-02T02:38:47;4.53;;;3.33;;
75316;SDS011;63913;51.492;10.368;2023-05-02T02:41:42;6.70;;;3.20;;
75316;SDS011;63913;51.492;10.368;2023-05-02T02:57:38;9.05;;;3.80;;
75316;SDS011;63913;51.492;10.368;2023-05-02T03:00:15;6.60;;;3.70;;
75316;SDS011;63913;51.492;10.368;2023-05-02T03:02:45;6.03;;;4.15;;
75316;SDS011;63913;51.492;10.368;2023-05-02T03:05:12;5.15;;;3.05;;
75316;SDS011;63913;51.492;10.368;2023-05-02T03:07:37;6.07;;;3.80;;
75316;SDS011;63913;51.492;10.368;2023-05-02T03:10:03;6.07;;;4.13;;
75316;SDS011;63913;51.492;10.368;2023-05-02T03:12:31;5.10;;;3.30;;
75316;SDS011;63913;51.492;10.368;2023-05-02T03:15:04;6.15;;;3.42;;
75316;SDS011;63913;51.492;10.368;2023-05-02T03:17:39;6.22;;;4.00;;
75316;SDS011;63913;51.492;10.368;2023-05-02T03:20:05;4.85;;;3.30;;
75316;SDS011;63913;51.492;10.368;2023-05-02T03:22:31;6.00;;;3.70;;
75316;SDS011;63913;51.492;10.368;2023-05-02T03:24:57;4.93;;;3.33;;
75316;SDS011;63913;51.492;10.368;2023-05-02T03:27:22;6.35;;;3.85;;
75316;SDS011;63913;51.492;10.368;2023-05-02T03:29:48;6.03;;;3.30;;
75316;SDS011;63913;51.492;10.368;2023-05-02T03:32:14;5.10;;;4.00;;
75316;SDS011;63913;51.492;10.368;2023-05-02T03:34:42;6.05;;;3.55;;
75316;SDS011;63913;51.492;10.368;2023-05-02T03:37:08;7.50;;;3.65;;
75316;SDS011;63913;51.492;10.368;2023-05-02T03:39:33;7.50;;;4.00;;
75316;SDS011;63913;51.492;10.368;2023-05-02T03:42:00;4.88;;;3.55;;
75316;SDS011;63913;51.492;10.368;2023-05-02T03:44:25;5.95;;;4.20;;
75316;SDS011;63913;51.492;10.368;2023-05-02T03:46:51;5.85;;;3.80;;
75316;SDS011;63913;51.492;10.368;2023-05-02T03:49:16;6.83;;;4.20;;
75316;SDS011;63913;51.492;10.368;2023-05-02T03:51:44;7.22;;;4.20;;
75316;SDS011;63913;51.492;10.368;2023-05-02T03:54:11;7.35;;;3.55;;
75316;SDS011;63913;51.492;10.368;2023-05-02T03:56:39;7.22;;;3.50;;
75316;SDS011;63913;51.492;10.368;2023-05-02T03:59:18;5.90;;;3.95;;
75316;SDS011;63913;51.492;10.368;2023-05-02T04:01:44;5.78;;;4.00;;
75316;SDS011;63913;51.492;10.368;2023-05-02T04:04:12;5.88;;;3.80;;
75316;SDS011;63913;51.492;10.368;2023-05-02T04:06:44;6.82;;;3.72;;
75316;SDS011;63913;51.492;10.368;2023-05-02T04:09:09;6.35;;;3.47;;
75316;SDS011;63913;51.492;10.368;2023-05-02T04:11:41;11.90;;;4.47;;
75316;SDS011;63913;51.492;10.368;2023-05-02T04:14:08;6.35;;;3.85;;
75316;SDS011;63913;51.492;10.368;2023-05-02T04:16:34;8.20;;;4.00;;
75316;SDS011;63913;51.492;10.368;2023-05-02T04:18:59;7.18;;;4.15;;
75316;SDS011;63913;51.492;10.368;2023-05-02T04:21:26;17.85;;;9.05;;
75316;SDS011;63913;51.492;10.368;2023-05-02T04:23:51;8.32;;;4.80;;
75316;SDS011;63913;51.492;10.368;2023-05-02T04:26:17;7.47;;;4.45;;
75316;SDS011;63913;51.492;10.368;2023-05-02T04:28:50;7.05;;;4.03;;
75316;SDS011;63913;51.492;10.368;2023-05-02T04:31:15;5.63;;;3.72;;
75316;SDS011;63913;51.492;10.368;2023-05-02T04:33:42;5.75;;;3.88;;
75316;SDS011;63913;51.492;10.368;2023-05-02T04:36:10;6.95;;;4.13;;
75316;SDS011;63913;51.492;10.368;2023-05-02T04:38:37;5.68;;;3.50;;
75316;SDS011;63913;51.492;10.368;2023-05-02T04:41:02;6.15;;;3.83;;
75316;SDS011;63913;51.492;10.368;2023-05-02T04:43:36;5.78;;;3.33;;
75316;SDS011;63913;51.492;10.368;2023-05-02T04:46:02;7.97;;;3.90;;
75316;SDS011;63913;51.492;10.368;2023-05-02T04:48:32;6.15;;;3.70;;
75316;SDS011;63913;51.492;10.368;2023-05-02T04:50:57;6.95;;;4.35;;
75316;SDS011;63913;51.492;10.368;2023-05-02T04:53:23;7.60;;;4.20;;
75316;SDS011;63913;51.492;10.368;2023-05-02T04:55:49;6.15;;;3.80;;
75316;SDS011;63913;51.492;10.368;2023-05-02T04:58:14;6.32;;;3.80;;
75316;SDS011;63913;51.492;10.368;2023-05-02T05:00:41;6.57;;;3.80;;
75316;SDS011;63913;51.492;10.368;2023-05-02T05:03:07;7.28;;;4.55;;
75316;SDS011;63913;51.492;10.368;2023-05-02T05:05:32;6.65;;;4.20;;
75316;SDS011;63913;51.492;10.368;2023-05-02T05:07:58;7.05;;;4.07;;
75316;SDS011;63913;51.492;10.368;2023-05-02T05:10:26;7.35;;;4.00;;
75316;SDS011;63913;51.492;10.368;2023-05-02T05:12:51;8.65;;;4.50;;
75316;SDS011;63913;51.492;10.368;2023-05-02T05:15:18;8.18;;;4.80;;
75316;SDS011;63913;51.492;10.368;2023-05-02T05:17:52;6.65;;;4.38;;
75316;SDS011;63913;51.492;10.368;2023-05-02T05:20:17;8.20;;;5.18;;
75316;SDS011;63913;51.492;10.368;2023-05-02T05:22:44;6.30;;;4.32;;
75316;SDS011;63913;51.492;10.368;2023-05-02T05:25:11;9.32;;;4.38;;
75316;SDS011;63913;51.492;10.368;2023-05-02T05:27:37;7.90;;;4.82;;
75316;SDS011;63913;51.492;10.368;2023-05-02T05:30:04;8.57;;;4.63;;
75316;SDS011;63913;51.492;10.368;2023-05-02T05:32:33;9.02;;;4.80;;
75316;SDS011;63913;51.492;10.368;2023-05-02T05:34:59;9.57;;;4.65;;
75316;SDS011;63913;51.492;10.368;2023-05-02T05:37:26;7.45;;;4.85;;
75316;SDS011;63913;51.492;10.368;2023-05-02T05:39:52;8.70;;;5.50;;
75316;SDS011;63913;51.492;10.368;2023-05-02T05:42:17;9.30;;;4.97;;
75316;SDS011;63913;51.492;10.368;2023-05-02T05:44:46;8.55;;;4.90;;
75316;SDS011;63913;51.492;10.368;2023-05-02T05:47:17;6.30;;;4.43;;
75316;SDS011;63913;51.492;10.368;2023-05-02T05:49:43;9.52;;;5.32;;
75316;SDS011;63913;51.492;10.368;2023-05-02T05:52:09;9.98;;;5.18;;
75316;SDS011;63913;51.492;10.368;2023-05-02T05:54:35;8.00;;;4.53;;
75316;SDS011;63913;51.492;10.368;2023-05-02T05:57:01;6.88;;;4.75;;
75316;SDS011;63913;51.492;10.368;2023-05-02T05:59:28;8.10;;;4.90;;
75316;SDS011;63913;51.492;10.368;2023-05-02T06:01:54;10.27;;;5.40;;
75316;SDS011;63913;51.492;10.368;2023-05-02T06:04:21;7.57;;;4.88;;
75316;SDS011;63913;51.492;10.368;2023-05-02T06:06:49;6.68;;;4.38;;
75316;SDS011;63913;51.492;10.368;2023-05-02T06:09:15;8.25;;;5.13;;
75316;SDS011;63913;51.492;10.368;2023-05-02T06:11:41;8.30;;;4.95;;
75316;SDS011;63913;51.492;10.368;2023-05-02T06:14:06;8.20;;;5.13;;
75316;SDS011;63913;51.492;10.368;2023-05-02T06:16:32;10.50;;;5.88;;
75316;SDS011;63913;51.492;10.368;2023-05-02T06:18:57;7.57;;;5.45;;
75316;SDS011;63913;51.492;10.368;2023-05-02T06:21:23;8.63;;;5.43;;
75316;SDS011;63913;51.492;10.368;2023-05-02T06:23:48;10.05;;;5.53;;
75316;SDS011;63913;51.492;10.368;2023-05-02T06:26:13;10.02;;;6.20;;
75316;SDS011;63913;51.492;10.368;2023-05-02T06:28:41;9.60;;;5.65;;
75316;SDS011;63913;51.492;10.368;2023-05-02T06:31:07;8.32;;;5.63;;
75316;SDS011;63913;51.492;10.368;2023-05-02T06:33:32;9.77;;;5.78;;
75316;SDS011;63913;51.492;10.368;2023-05-02T06:35:58;12.68;;;6.00;;
75316;SDS011;63913;51.492;10.368;2023-05-02T06:38:24;10.25;;;5.90;;
75316;SDS011;63913;51.492;10.368;2023-05-02T06:40:49;10.05;;;5.60;;
75316;SDS011;63913;51.492;10.368;2023-05-02T06:43:15;10.07;;;5.60;;
75316;SDS011;63913;51.492;10.368;2023-05-02T06:45:44;10.10;;;5.80;;
75316;SDS011;63913;51.492;10.368;2023-05-02T06:48:10;10.32;;;6.63;;
75316;SDS011;63913;51.492;10.368;2023-05-02T06:50:35;13.07;;;6.70;;
75316;SDS011;63913;51.492;10.368;2023-05-02T06:53:01;11.73;;;6.65;;
75316;SDS011;63913;51.492;10.368;2023-05-02T06:55:28;10.95;;;6.30;;
75316;SDS011;63913;51.492;10.368;2023-05-02T06:57:53;10.85;;;6.50;;
75316;SDS011;63913;51.492;10.368;2023-05-02T07:00:19;13.10;;;6.70;;
75316;SDS011;63913;51.492;10.368;2023-05-02T07:02:45;11.20;;;6.75;;
75316;SDS011;63913;51.492;10.368;2023-05-02T07:05:12;11.27;;;6.18;;
75316;SDS011;63913;51.492;10.368;2023-05-02T07:07:39;11.00;;;6.75;;
75316;SDS011;63913;51.492;10.368;2023-05-02T07:10:06;13.05;;;7.70;;
75316;SDS011;63913;51.492;10.368;2023-05-02T07:12:32;11.63;;;6.82;;
75316;SDS011;63913;51.492;10.368;2023-05-02T07:14:57;10.67;;;7.00;;
75316;SDS011;63913;51.492;10.368;2023-05-02T07:17:22;12.15;;;7.43;;
75316;SDS011;63913;51.492;10.368;2023-05-02T07:19:48;12.02;;;7.65;;
75316;SDS011;63913;51.492;10.368;2023-05-02T07:22:13;12.85;;;7.43;;
75316;SDS011;63913;51.492;10.368;2023-05-02T07:24:40;12.82;;;7.45;;
75316;SDS011;63913;51.492;10.368;2023-05-02T07:27:07;13.60;;;7.43;;
75316;SDS011;63913;51.492;10.368;2023-05-02T07:29:33;12.85;;;7.30;;
75316;SDS011;63913;51.492;10.368;2023-05-02T07:31:58;14.65;;;7.72;;
75316;SDS011;63913;51.492;10.368;2023-05-02T07:34:24;16.10;;;7.93;;
75316;SDS011;63913;51.492;10.368;2023-05-02T07:36:50;14.25;;;8.35;;
75316;SDS011;63913;51.492;10.368;2023-05-02T07:39:15;15.38;;;8.20;;
75316;SDS011;63913;51.492;10.368;2023-05-02T07:41:40;14.10;;;8.45;;
75316;SDS011;63913;51.492;10.368;2023-05-02T07:44:06;15.90;;;8.87;;
75316;SDS011;63913;51.492;10.368;2023-05-02T07:46:31;14.10;;;8.23;;
75316;SDS011;63913;51.492;10.368;2023-05-02T07:48:56;14.13;;;7.28;;
75316;SDS011;63913;51.492;10.368;2023-05-02T07:51:22;12.48;;;7.63;;
75316;SDS011;63913;51.492;10.368;2023-05-02T07:53:50;12.25;;;6.82;;
75316;SDS011;63913;51.492;10.368;2023-05-02T07:56:18;15.23;;;8.07;;
75316;SDS011;63913;51.492;10.368;2023-05-02T07:58:43;12.63;;;6.35;;
75316;SDS011;63913;51.492;10.368;2023-05-02T08:01:09;11.63;;;7.10;;
75316;SDS011;63913;51.492;10.368;2023-05-02T08:03:34;19.30;;;7.05;;
75316;SDS011;63913;51.492;10.368;2023-05-02T08:05:59;12.13;;;6.60;;
75316;SDS011;63913;51.492;10.368;2023-05-02T08:08:26;11.80;;;6.38;;
75316;SDS011;63913;51.492;10.368;2023-05-02T08:10:52;10.10;;;5.60;;
75316;SDS011;63913;51.492;10.368;2023-05-02T08:13:17;11.05;;;5.35;;
75316;SDS011;63913;51.492;10.368;2023-05-02T08:15:43;7.68;;;4.97;;
75316;SDS011;63913;51.492;10.368;2023-05-02T08:18:08;9.65;;;5.40;;
75316;SDS011;63913;51.492;10.368;2023-05-02T08:20:34;8.25;;;4.22;;
75316;SDS011;63913;51.492;10.368;2023-05-02T08:23:00;8.02;;;4.47;;
75316;SDS011;63913;51.492;10.368;2023-05-02T08:25:26;8.77;;;4.90;;
75316;SDS011;63913;51.492;10.368;2023-05-02T08:27:52;9.32;;;5.07;;
75316;SDS011;63913;51.492;10.368;2023-05-02T08:30:17;9.02;;;5.00;;
75316;SDS011;63913;51.492;10.368;2023-05-02T08:32:42;10.13;;;4.40;;
75316;SDS011;63913;51.492;10.368;2023-05-02T08:35:10;6.95;;;3.70;;
75316;SDS011;63913;51.492;10.368;2023-05-02T08:37:35;6.75;;;3.90;;
75316;SDS011;63913;51.492;10.368;2023-05-02T08:40:01;8.07;;;3.67;;
75316;SDS011;63913;51.492;10.368;2023-05-02T08:42:27;7.80;;;3.30;;
75316;SDS011;63913;51.492;10.368;2023-05-02T08:44:54;6.80;;;3.75;;
75316;SDS011;63913;51.492;10.368;2023-05-02T08:47:19;7.05;;;3.75;;
75316;SDS011;63913;51.492;10.368;2023-05-02T08:49:47;6.53;;;3.55;;
75316;SDS011;63913;51.492;10.368;2023-05-02T08:52:13;6.28;;;3.45;;
75316;SDS011;63913;51.492;10.368;2023-05-02T08:54:40;6.47;;;3.50;;
75316;SDS011;63913;51.492;10.368;2023-05-02T08:57:06;7.22;;;3.88;;
75316;SDS011;63913;51.492;10.368;2023-05-02T08:59:32;6.28;;;3.28;;
75316;SDS011;63913;51.492;10.368;2023-05-02T09:01:58;3.97;;;2.78;;
75316;SDS011;63913;51.492;10.368;2023-05-02T09:04:30;4.15;;;2.45;;
75316;SDS011;63913;51.492;10.368;2023-05-02T09:06:58;4.30;;;2.80;;
75316;SDS011;63913;51.492;10.368;2023-05-02T09:09:24;6.22;;;3.10;;
75316;SDS011;63913;51.492;10.368;2023-05-02T09:11:50;4.35;;;3.30;;
75316;SDS011;63913;51.492;10.368;2023-05-02T09:14:16;4.25;;;2.10;;
75316;SDS011;63913;51.492;10.368;2023-05-02T09:16:42;3.42;;;2.17;;
75316;SDS011;63913;51.492;10.368;2023-05-02T09:19:08;4.20;;;2.20;;
75316;SDS011;63913;51.492;10.368;2023-05-02T09:21:34;2.20;;;1.80;;
75316;SDS011;63913;51.492;10.368;2023-05-02T09:24:01;4.18;;;2.60;;
75316;SDS011;63913;51.492;10.368;2023-05-02T09:26:39;3.38;;;1.90;;
75316;SDS011;63913;51.492;10.368;2023-05-02T09:29:05;3.97;;;2.90;;
75316;SDS011;63913;51.492;10.368;2023-05-02T09:31:31;2.53;;;2.00;;
75316;SDS011;63913;51.492;10.368;2023-05-02T09:34:12;2.63;;;2.13;;
75316;SDS011;63913;51.492;10.368;2023-05-02T09:39:14;3.35;;;2.10;;
75316;SDS011;63913;51.492;10.368;2023-05-02T09:44:08;3.60;;;1.75;;
75316;SDS011;63913;51.492;10.368;2023-05-02T09:46:41;3.78;;;2.00;;
75316;SDS011;63913;51.492;10.368;2023-05-02T09:49:07;4.82;;;2.35;;
75316;SDS011;63913;51.492;10.368;2023-05-02T09:51:34;3.22;;;2.25;;
75316;SDS011;63913;51.492;10.368;2023-05-02T09:54:00;4.28;;;2.45;;
75316;SDS011;63913;51.492;10.368;2023-05-02T09:56:25;2.50;;;2.08;;
75316;SDS011;63913;51.492;10.368;2023-05-02T09:58:51;3.03;;;2.28;;
75316;SDS011;63913;51.492;10.368;2023-05-02T10:01:18;3.80;;;2.00;;
75316;SDS011;63913;51.492;10.368;2023-05-02T10:03:45;5.30;;;2.75;;
75316;SDS011;63913;51.492;10.368;2023-05-02T10:06:13;3.83;;;2.53;;
75316;SDS011;63913;51.492;10.368;2023-05-02T10:08:40;6.22;;;2.53;;
75316;SDS011;63913;51.492;10.368;2023-05-02T10:11:06;5.63;;;3.22;;
75316;SDS011;63913;51.492;10.368;2023-05-02T10:13:33;4.20;;;2.60;;
75316;SDS011;63913;51.492;10.368;2023-05-02T10:16:03;4.82;;;2.55;;
75316;SDS011;63913;51.492;10.368;2023-05-02T10:21:27;5.15;;;2.53;;
75316;SDS011;63913;51.492;10.368;2023-05-02T10:23:54;6.22;;;3.05;;
75316;SDS011;63913;51.492;10.368;2023-05-02T10:26:20;6.63;;;2.88;;
75316;SDS011;63913;51.492;10.368;2023-05-02T10:28:47;5.13;;;2.60;;
75316;SDS011;63913;51.492;10.368;2023-05-02T10:31:14;6.57;;;3.58;;
75316;SDS011;63913;51.492;10.368;2023-05-02T10:33:40;6.60;;;3.03;;
75316;SDS011;63913;51.492;10.368;2023-05-02T10:36:07;12.15;;;3.30;;
75316;SDS011;63913;51.492;10.368;2023-05-02T10:38:34;7.68;;;2.65;;
75316;SDS011;63913;51.492;10.368;2023-05-02T10:41:08;5.15;;;2.83;;
75316;SDS011;63913;51.492;10.368;2023-05-02T10:43:40;10.40;;;3.05;;
75316;SDS011;63913;51.492;10.368;2023-05-02T10:49:05;7.43;;;2.75;;
75316;SDS011;63913;51.492;10.368;2023-05-02T10:51:34;7.45;;;2.72;;
75316;SDS011;63913;51.492;10.368;2023-05-02T10:59:34;6.85;;;3.05;;
75316;SDS011;63913;51.492;10.368;2023-05-02T11:02:04;7.82;;;3.00;;
75316;SDS011;63913;51.492;10.368;2023-05-02T11:07:28;5.90;;;2.60;;
75316;SDS011;63913;51.492;10.368;2023-05-02T11:10:22;9.40;;;3.13;;
75316;SDS011;63913;51.492;10.368;2023-05-02T11:15:12;7.68;;;3.30;;
75316;SDS011;63913;51.492;10.368;2023-05-02T11:20:36;9.45;;;4.10;;
75316;SDS011;63913;51.492;10.368;2023-05-02T11:25:40;6.90;;;3.22;;
75316;SDS011;63913;51.492;10.368;2023-05-02T11:30:53;9.43;;;3.25;;
75316;SDS011;63913;51.492;10.368;2023-05-02T11:33:19;7.63;;;3.10;;
75316;SDS011;63913;51.492;10.368;2023-05-02T11:35:44;7.40;;;3.05;;
75316;SDS011;63913;51.492;10.368;2023-05-02T11:38:12;8.35;;;3.50;;
75316;SDS011;63913;51.492;10.368;2023-05-02T11:40:39;11.00;;;3.53;;
75316;SDS011;63913;51.492;10.368;2023-05-02T11:43:12;6.50;;;3.03;;
75316;SDS011;63913;51.492;10.368;2023-05-02T11:45:41;6.45;;;3.17;;
75316;SDS011;63913;51.492;10.368;2023-05-02T11:48:07;8.48;;;3.35;;
75316;SDS011;63913;51.492;10.368;2023-05-02T11:50:43;8.02;;;3.58;;
75316;SDS011;63913;51.492;10.368;2023-05-02T11:53:22;8.50;;;3.33;;
75316;SDS011;63913;51.492;10.368;2023-05-02T11:55:50;7.10;;;3.38;;
75316;SDS011;63913;51.492;10.368;2023-05-02T11:58:24;11.40;;;3.60;;
75316;SDS011;63913;51.492;10.368;2023-05-02T12:00:53;7.43;;;3.70;;
75316;SDS011;63913;51.492;10.368;2023-05-02T12:03:23;7.00;;;3.70;;
75316;SDS011;63913;51.492;10.368;2023-05-02T12:05:56;7.25;;;3.58;;
75316;SDS011;63913;51.492;10.368;2023-05-02T12:08:23;9.57;;;3.35;;
75316;SDS011;63913;51.492;10.368;2023-05-02T12:10:51;10.55;;;4.47;;
75316;SDS011;63913;51.492;10.368;2023-05-02T12:13:19;7.60;;;3.58;;
75316;SDS011;63913;51.492;10.368;2023-05-02T12:15:45;9.05;;;3.97;;
75316;SDS011;63913;51.492;10.368;2023-05-02T12:18:11;9.07;;;4.03;;
75316;SDS011;63913;51.492;10.368;2023-05-02T12:20:38;10.43;;;3.28;;
75316;SDS011;63913;51.492;10.368;2023-05-02T12:23:04;10.90;;;4.10;;
75316;SDS011;63913;51.492;10.368;2023-05-02T12:25:32;12.55;;;4.50;;
75316;SDS011;63913;51.492;10.368;2023-05-02T12:28:02;10.60;;;3.60;;
75316;SDS011;63913;51.492;10.368;2023-05-02T12:30:28;9.18;;;4.15;;
75316;SDS011;63913;51.492;10.368;2023-05-02T12:32:57;8.82;;;3.90;;
75316;SDS011;63913;51.492;10.368;2023-05-02T12:35:24;9.30;;;4.47;;
75316;SDS011;63913;51.492;10.368;2023-05-02T12:37:50;11.57;;;4.07;;
75316;SDS011;63913;51.492;10.368;2023-05-02T12:40:16;20.77;;;4.68;;
75316;SDS011;63913;51.492;10.368;2023-05-02T12:42:42;6.65;;;3.95;;
75316;SDS011;63913;51.492;10.368;2023-05-02T12:45:16;10.80;;;4.20;;
75316;SDS011;63913;51.492;10.368;2023-05-02T12:47:45;11.13;;;4.47;;
75316;SDS011;63913;51.492;10.368;2023-05-02T12:50:10;12.77;;;5.38;;
75316;SDS011;63913;51.492;10.368;2023-05-02T12:52:49;14.13;;;5.13;;
75316;SDS011;63913;51.492;10.368;2023-05-02T12:55:22;14.00;;;4.85;;
75316;SDS011;63913;51.492;10.368;2023-05-02T12:57:48;14.05;;;4.57;;
75316;SDS011;63913;51.492;10.368;2023-05-02T13:00:18;11.63;;;4.25;;
75316;SDS011;63913;51.492;10.368;2023-05-02T13:02:44;11.07;;;4.60;;
75316;SDS011;63913;51.492;10.368;2023-05-02T13:05:17;11.88;;;4.50;;
75316;SDS011;63913;51.492;10.368;2023-05-02T13:07:42;9.85;;;4.93;;
75316;SDS011;63913;51.492;10.368;2023-05-02T13:10:08;13.23;;;5.18;;
75316;SDS011;63913;51.492;10.368;2023-05-02T13:12:35;14.38;;;4.72;;
75316;SDS011;63913;51.492;10.368;2023-05-02T13:15:02;10.63;;;4.45;;
75316;SDS011;63913;51.492;10.368;2023-05-02T13:17:28;11.27;;;4.68;;
75316;SDS011;63913;51.492;10.368;2023-05-02T13:19:54;12.68;;;4.60;;
75316;SDS011;63913;51.492;10.368;2023-05-02T13:22:19;10.80;;;5.00;;
75316;SDS011;63913;51.492;10.368;2023-05-02T13:24:45;14.98;;;5.38;;
75316;SDS011;63913;51.492;10.368;2023-05-02T13:27:11;15.80;;;5.38;;
75316;SDS011;63913;51.492;10.368;2023-05-02T13:29:36;11.05;;;4.78;;
75316;SDS011;63913;51.492;10.368;2023-05-02T13:32:01;12.05;;;4.65;;
75316;SDS011;63913;51.492;10.368;2023-05-02T13:34:27;8.63;;;4.50;;
75316;SDS011;63913;51.492;10.368;2023-05-02T13:36:52;11.40;;;4.57;;
75316;SDS011;63913;51.492;10.368;2023-05-02T13:39:17;11.65;;;4.78;;
75316;SDS011;63913;51.492;10.368;2023-05-02T13:41:43;8.50;;;4.57;;
75316;SDS011;63913;51.492;10.368;2023-05-02T13:44:08;13.95;;;4.75;;
75316;SDS011;63913;51.492;10.368;2023-05-02T13:46:34;12.15;;;4.20;;
75316;SDS011;63913;51.492;10.368;2023-05-02T13:49:04;9.05;;;4.00;;
75316;SDS011;63913;51.492;10.368;2023-05-02T13:51:29;8.05;;;3.67;;
75316;SDS011;63913;51.492;10.368;2023-05-02T13:53:56;10.27;;;4.88;;
75316;SDS011;63913;51.492;10.368;2023-05-02T13:56:22;8.55;;;4.03;;
75316;SDS011;63913;51.492;10.368;2023-05-02T13:58:47;11.02;;;4.80;;
75316;SDS011;63913;51.492;10.368;2023-05-02T14:01:12;14.40;;;4.88;;
75316;SDS011;63913;51.492;10.368;2023-05-02T14:03:38;12.17;;;4.60;;
75316;SDS011;63913;51.492;10.368;2023-05-02T14:06:03;14.07;;;4.63;;
75316;SDS011;63913;51.492;10.368;2023-05-02T14:08:29;10.77;;;5.35;;
75316;SDS011;63913;51.492;10.368;2023-05-02T14:10:54;9.48;;;4.28;;
75316;SDS011;63913;51.492;10.368;2023-05-02T14:13:19;10.18;;;4.85;;
75316;SDS011;63913;51.492;10.368;2023-05-02T14:15:45;14.73;;;5.05;;
75316;SDS011;63913;51.492;10.368;2023-05-02T14:18:10;9.13;;;4.45;;
75316;SDS011;63913;51.492;10.368;2023-05-02T14:20:36;13.55;;;5.28;;
75316;SDS011;63913;51.492;10.368;2023-05-02T14:23:01;15.67;;;5.03;;
75316;SDS011;63913;51.492;10.368;2023-05-02T14:25:26;12.75;;;4.70;;
75316;SDS011;63913;51.492;10.368;2023-05-02T14:27:52;9.95;;;4.57;;
75316;SDS011;63913;51.492;10.368;2023-05-02T14:30:17;8.43;;;4.10;;
75316;SDS011;63913;51.492;10.368;2023-05-02T14:32:42;10.68;;;5.57;;
75316;SDS011;63913;51.492;10.368;2023-05-02T14:35:08;9.98;;;3.83;;
75316;SDS011;63913;51.492;10.368;2023-05-02T14:37:34;9.38;;;4.65;;
75316;SDS011;63913;51.492;10.368;2023-05-02T14:39:59;7.90;;;4.03;;
75316;SDS011;63913;51.492;10.368;2023-05-02T14:42:24;9.20;;;4.00;;
75316;SDS011;63913;51.492;10.368;2023-05-02T14:44:50;7.63;;;3.70;;
75316;SDS011;63913;51.492;10.368;2023-05-02T14:47:16;7.85;;;3.50;;
75316;SDS011;63913;51.492;10.368;2023-05-02T14:49:41;5.75;;;3.35;;
75316;SDS011;63913;51.492;10.368;2023-05-02T14:52:07;6.80;;;3.47;;
75316;SDS011;63913;51.492;10.368;2023-05-02T14:54:33;9.13;;;4.30;;
75316;SDS011;63913;51.492;10.368;2023-05-02T14:56:58;8.20;;;3.88;;
75316;SDS011;63913;51.492;10.368;2023-05-02T14:59:23;7.80;;;3.20;;
75316;SDS011;63913;51.492;10.368;2023-05-02T15:01:53;6.50;;;3.05;;
75316;SDS011;63913;51.492;10.368;2023-05-02T15:04:19;11.32;;;3.25;;
75316;SDS011;63913;51.492;10.368;2023-05-02T15:06:44;5.90;;;2.92;;
75316;SDS011;63913;51.492;10.368;2023-05-02T15:09:10;7.47;;;2.92;;
75316;SDS011;63913;51.492;10.368;2023-05-02T15:11:36;5.00;;;2.67;;
75316;SDS011;63913;51.492;10.368;2023-05-02T15:14:02;4.72;;;2.65;;
75316;SDS011;63913;51.492;10.368;2023-05-02T15:16:27;6.90;;;3.97;;
75316;SDS011;63913;51.492;10.368;2023-05-02T15:18:53;5.13;;;2.60;;
75316;SDS011;63913;51.492;10.368;2023-05-02T15:21:19;6.45;;;3.35;;